createdAt,value
2023-03-21T00:01:02.245Z,29.27
2023-03-21T00:05:13.336Z,29.20
2023-03-21T00:09:03.210Z,29.25
2023-03-21T00:13:02.163Z,29.24
2023-03-21T00:17:02.121Z,29.23
2023-03-21T00:21:35.637Z,29.21
2023-03-21T00:25:03.042Z,29.19
2023-03-21T00:29:02.425Z,29.14
2023-03-21T00:33:08.929Z,29.15
2023-03-21T00:37:02.952Z,29.16
2023-03-21T00:41:04.929Z,29.14
2023-03-21T00:45:02.864Z,29.10
2023-03-21T00:49:01.851Z,29.08
2023-03-21T00:53:01.779Z,29.08
2023-03-21T00:57:01.758Z,29.08
2023-03-21T01:01:01.873Z,29.05
2023-03-21T01:05:01.802Z,29.08
2023-03-21T01:09:01.877Z,29.03
2023-03-21T01:13:02.045Z,29.01
2023-03-21T01:17:02.016Z,29.02
2023-03-21T01:21:02.041Z,29.08
2023-03-21T01:25:19.332Z,29.01
2023-03-21T01:29:03.073Z,28.99
2023-03-21T01:33:02.420Z,29.00
2023-03-21T01:37:02.087Z,28.99
2023-03-21T01:41:06.175Z,29.01
2023-03-21T01:45:02.957Z,28.96
2023-03-21T01:49:01.998Z,28.92
2023-03-21T01:53:01.911Z,28.99
2023-03-21T01:57:01.828Z,28.96
2023-03-21T02:01:02.057Z,28.95
2023-03-21T02:05:01.830Z,28.89
2023-03-21T02:09:02.475Z,28.94
2023-03-21T02:13:01.980Z,28.94
2023-03-21T02:17:02.000Z,28.87
2023-03-21T02:21:02.036Z,28.88
2023-03-21T02:25:06.169Z,28.85
2023-03-21T02:29:03.114Z,28.88
2023-03-21T02:33:02.090Z,28.89
2023-03-21T02:37:02.057Z,28.84
2023-03-21T02:41:05.364Z,28.89
2023-03-21T02:45:03.452Z,28.88
2023-03-21T02:49:01.915Z,28.83
2023-03-21T02:53:01.816Z,28.84
2023-03-21T02:57:01.838Z,28.80
2023-03-21T03:01:02.938Z,28.87
2023-03-21T03:05:06.512Z,28.84
2023-03-21T03:09:03.281Z,28.77
2023-03-21T03:13:01.728Z,28.81
2023-03-21T03:17:01.700Z,28.77
2023-03-21T03:21:04.490Z,28.80
2023-03-21T03:25:12.599Z,28.73
2023-03-21T03:29:02.610Z,28.73
2023-03-21T03:33:01.950Z,28.76
2023-03-21T03:37:01.557Z,28.76
2023-03-21T03:41:01.483Z,28.74
2023-03-21T03:45:01.400Z,28.73
2023-03-21T03:49:01.476Z,28.78
2023-03-21T03:53:07.134Z,28.74
2023-03-21T03:57:02.429Z,28.69
2023-03-21T04:01:01.447Z,28.69
2023-03-21T04:05:01.352Z,28.69
2023-03-21T04:09:03.469Z,28.69
2023-03-21T04:13:01.267Z,28.73
2023-03-21T04:17:01.290Z,28.72
2023-03-21T04:21:01.224Z,28.69
2023-03-21T04:25:02.045Z,28.74
2023-03-21T04:29:01.161Z,28.69
2023-03-21T04:33:02.006Z,28.65
2023-03-21T04:37:01.106Z,28.67
2023-03-21T04:41:01.027Z,28.66
2023-03-21T04:45:01.054Z,28.67
2023-03-21T04:49:00.970Z,28.63
2023-03-21T04:53:00.940Z,28.65
2023-03-21T04:57:00.859Z,28.65
2023-03-21T05:01:00.884Z,28.62
2023-03-21T05:05:00.842Z,28.63
2023-03-21T05:09:00.839Z,28.61
2023-03-21T05:13:01.058Z,28.58
2023-03-21T05:17:01.008Z,28.57
2023-03-21T05:21:01.548Z,28.58
2023-03-21T05:25:01.072Z,28.58
2023-03-21T05:29:01.096Z,28.59
2023-03-21T05:33:01.218Z,28.59
2023-03-21T05:37:01.225Z,28.58
2023-03-21T05:41:01.515Z,28.50
2023-03-21T05:45:01.248Z,28.49
2023-03-21T05:49:01.254Z,28.44
2023-03-21T05:53:01.620Z,28.44
2023-03-21T05:57:01.378Z,28.39
2023-03-21T06:01:01.546Z,28.40
2023-03-21T06:05:01.369Z,28.37
2023-03-21T06:09:02.171Z,28.37
2023-03-21T06:13:01.386Z,28.32
2023-03-21T06:17:01.363Z,28.31
2023-03-21T06:21:01.399Z,28.29
2023-03-21T06:25:02.153Z,28.29
2023-03-21T06:29:01.370Z,28.23
2023-03-21T06:33:01.480Z,28.23
2023-03-21T06:37:01.587Z,28.65
2023-03-21T06:41:01.622Z,28.80
2023-03-21T06:45:01.590Z,28.34
2023-03-21T06:49:01.428Z,27.81
2023-03-21T06:53:01.474Z,28.47
2023-03-21T06:57:01.674Z,28.04
2023-03-21T07:01:02.123Z,28.05
2023-03-21T07:05:02.036Z,28.18
2023-03-21T07:09:02.034Z,28.34
2023-03-21T07:13:01.997Z,29.05
2023-03-21T07:17:01.941Z,29.32
2023-03-21T07:21:01.943Z,29.19
2023-03-21T07:25:05.011Z,29.90
2023-03-21T07:29:01.854Z,30.55
2023-03-21T07:33:02.690Z,30.71
2023-03-21T07:37:01.747Z,30.72
2023-03-21T07:41:01.726Z,31.11
2023-03-21T07:45:01.678Z,31.59
2023-03-21T07:49:01.645Z,32.03
2023-03-21T07:53:01.725Z,32.40
2023-03-21T07:57:01.665Z,32.72
2023-03-21T08:01:01.515Z,32.96
2023-03-21T08:05:01.546Z,33.27
2023-03-21T08:09:01.570Z,33.40
2023-03-21T08:13:02.097Z,33.90
2023-03-21T08:17:01.728Z,34.07
2023-03-21T08:21:01.862Z,34.37
2023-03-21T08:25:02.067Z,34.63
2023-03-21T08:29:02.257Z,35.06
2023-03-21T08:33:02.932Z,35.04
2023-03-21T08:37:02.511Z,34.60
2023-03-21T08:41:02.753Z,33.81
2023-03-21T08:45:03.018Z,33.65
2023-03-21T08:49:03.142Z,33.51
2023-03-21T08:53:03.008Z,33.30
2023-03-21T08:57:03.607Z,33.21
2023-03-21T09:01:03.165Z,33.07
2023-03-21T09:05:03.217Z,32.92
2023-03-21T09:09:06.356Z,32.84
2023-03-21T09:13:03.132Z,32.63
2023-03-21T09:17:03.167Z,32.53
2023-03-21T09:21:03.434Z,32.35
2023-03-21T09:25:03.158Z,32.14
2023-03-21T09:29:03.389Z,31.97
2023-03-21T09:33:02.932Z,31.80
2023-03-21T09:37:03.018Z,31.62
2023-03-21T09:41:02.933Z,31.51
2023-03-21T09:45:02.966Z,32.08
2023-03-21T09:49:02.836Z,32.31
2023-03-21T09:53:03.685Z,32.16
2023-03-21T09:57:02.725Z,31.56
2023-03-21T10:01:02.782Z,31.08
2023-03-21T10:05:02.817Z,30.93
2023-03-21T10:09:03.211Z,30.78
2023-03-21T10:13:02.706Z,30.66
2023-03-21T10:17:02.631Z,30.58
2023-03-21T10:21:03.425Z,30.50
2023-03-21T10:25:02.658Z,30.42
2023-03-21T10:29:02.746Z,30.32
2023-03-21T10:33:02.746Z,30.34
2023-03-21T10:37:04.102Z,31.19
2023-03-21T10:41:03.126Z,31.96
2023-03-21T10:45:02.805Z,32.32
2023-03-21T10:49:02.880Z,32.64
2023-03-21T10:53:02.738Z,32.92
2023-03-21T10:57:02.670Z,33.26
2023-03-21T11:01:02.717Z,33.76
2023-03-21T11:05:02.756Z,34.18
2023-03-21T11:09:03.543Z,34.30
2023-03-21T11:13:02.590Z,34.21
2023-03-21T11:17:02.533Z,34.51
2023-03-21T11:21:02.616Z,35.05
2023-03-21T11:25:03.199Z,35.36
2023-03-21T11:29:02.713Z,35.55
2023-03-21T11:33:05.202Z,33.77
2023-03-21T11:37:02.295Z,30.06
2023-03-21T11:41:02.270Z,31.28
2023-03-21T11:45:02.232Z,31.80
2023-03-21T11:49:03.192Z,32.06
2023-03-21T11:53:02.367Z,32.27
2023-03-21T11:57:02.267Z,32.42
2023-03-21T12:01:02.130Z,32.82
2023-03-21T12:05:02.052Z,32.60
2023-03-21T12:09:02.029Z,32.76
2023-03-21T12:13:02.076Z,32.47
2023-03-21T12:17:02.020Z,32.81
2023-03-21T12:21:02.032Z,33.06
2023-03-21T12:25:02.604Z,32.83
2023-03-21T12:29:01.887Z,32.51
2023-03-21T12:33:01.978Z,32.59
2023-03-21T12:37:01.753Z,32.65
2023-03-21T12:41:01.738Z,32.57
2023-03-21T12:45:06.076Z,32.57
2023-03-21T12:49:02.639Z,32.52
2023-03-21T12:53:01.704Z,32.38
2023-03-21T12:57:01.733Z,32.33
2023-03-21T13:01:02.209Z,32.24
2023-03-21T13:05:01.858Z,32.10
2023-03-21T13:09:01.587Z,32.07
2023-03-21T13:13:01.493Z,32.03
2023-03-21T13:17:02.251Z,31.93
2023-03-21T13:21:04.202Z,31.93
2023-03-21T13:25:01.424Z,31.79
2023-03-21T13:29:03.230Z,31.58
2023-03-21T13:33:01.370Z,31.61
2023-03-21T13:37:01.446Z,31.52
2023-03-21T13:41:01.303Z,31.39
2023-03-21T13:45:01.292Z,31.31
2023-03-21T13:49:01.235Z,31.24
2023-03-21T13:53:01.447Z,31.16
2023-03-21T13:57:01.724Z,31.05
2023-03-21T14:01:01.637Z,30.94
2023-03-21T14:05:06.272Z,30.86
2023-03-21T14:09:02.735Z,30.82
2023-03-21T14:13:01.924Z,30.73
2023-03-21T14:17:02.115Z,30.66
2023-03-21T14:21:02.362Z,30.61
2023-03-21T14:25:01.852Z,30.52
2023-03-21T14:29:02.738Z,30.48
2023-03-21T14:33:02.746Z,30.43
2023-03-21T14:37:02.391Z,30.39
2023-03-21T14:41:02.911Z,30.27
2023-03-21T14:45:02.784Z,30.27
2023-03-21T14:49:02.868Z,30.19
2023-03-21T14:53:03.086Z,30.12
2023-03-21T14:57:03.385Z,30.09
2023-03-21T15:01:03.477Z,30.06
2023-03-21T15:05:04.609Z,29.95
2023-03-21T15:09:03.840Z,29.84
2023-03-21T15:13:04.145Z,29.84
2023-03-21T15:17:04.252Z,29.78
2023-03-21T15:21:04.788Z,29.74
2023-03-21T15:25:04.652Z,29.72
2023-03-21T15:29:04.951Z,29.71
2023-03-21T15:33:05.155Z,29.60
2023-03-21T15:37:05.294Z,29.60
2023-03-21T15:41:05.516Z,29.57
2023-03-21T15:45:05.769Z,29.58
2023-03-21T15:49:05.920Z,29.53
2023-03-21T15:53:06.093Z,29.53
2023-03-21T15:57:06.335Z,29.50
2023-03-21T16:01:08.480Z,29.44
2023-03-21T16:05:06.845Z,29.62
2023-03-21T16:09:06.902Z,29.82
2023-03-21T16:13:07.159Z,31.01
2023-03-21T16:17:07.841Z,32.04
2023-03-21T16:21:07.541Z,32.45
2023-03-21T16:25:07.720Z,32.47
2023-03-21T16:29:07.945Z,32.26
2023-03-21T16:33:08.272Z,32.12
2023-03-21T16:37:08.399Z,31.96
2023-03-21T16:41:08.594Z,31.88
2023-03-21T16:45:08.524Z,31.72
2023-03-21T16:49:08.494Z,31.66
2023-03-21T16:53:08.430Z,31.60
2023-03-21T16:57:08.545Z,31.45
2023-03-21T17:01:08.394Z,31.38
2023-03-21T17:05:08.341Z,31.34
2023-03-21T17:09:08.300Z,31.24
2023-03-21T17:13:08.284Z,31.25
2023-03-21T17:17:08.304Z,31.14
2023-03-21T17:21:08.272Z,31.13
2023-03-21T17:25:08.395Z,31.07
2023-03-21T17:29:08.577Z,31.05
2023-03-21T17:33:08.723Z,31.03
2023-03-21T17:37:08.787Z,30.93
2023-03-21T17:41:09.373Z,30.93
2023-03-21T17:45:09.343Z,30.89
2023-03-21T17:49:09.155Z,30.80
2023-03-21T17:53:09.327Z,30.79
2023-03-21T17:57:09.202Z,30.80
2023-03-21T18:01:08.993Z,30.70
2023-03-21T18:05:09.097Z,30.62
2023-03-21T18:09:09.823Z,30.66
2023-03-21T18:13:08.976Z,30.58
2023-03-21T18:17:09.018Z,30.62
2023-03-21T18:21:09.025Z,30.62
2023-03-21T18:25:09.025Z,30.52
2023-03-21T18:30:13.260Z,30.51
2023-03-21T18:33:09.997Z,30.52
2023-03-21T18:37:10.027Z,30.45
2023-03-21T18:41:09.839Z,30.42
2023-03-21T18:45:09.008Z,30.40
2023-03-21T18:49:51.885Z,30.36
2023-03-21T18:53:10.036Z,30.29
2023-03-21T18:57:39.227Z,30.37
2023-03-21T19:01:10.011Z,30.28
2023-03-21T19:05:08.905Z,30.22
2023-03-21T19:09:09.891Z,30.25
2023-03-21T19:13:08.770Z,30.18
2023-03-21T19:18:06.523Z,30.22
2023-03-21T19:21:09.665Z,30.15
2023-03-21T19:25:08.694Z,30.17
2023-03-21T19:29:08.786Z,30.07
2023-03-21T19:33:08.531Z,29.99
2023-03-21T19:37:08.606Z,29.93
2023-03-21T19:41:08.511Z,29.85
2023-03-21T19:45:08.653Z,29.82
2023-03-21T19:49:08.627Z,29.82
2023-03-21T19:53:08.643Z,29.76
2023-03-21T19:57:08.785Z,29.72
2023-03-21T20:01:08.875Z,29.67
2023-03-21T20:05:08.884Z,29.67
2023-03-21T20:13:10.407Z,29.59
2023-03-21T20:17:08.888Z,29.56
2023-03-21T20:21:17.041Z,29.57
2023-03-21T20:25:09.754Z,29.54
2023-03-21T20:29:54.990Z,29.50
2023-03-21T20:33:09.655Z,29.53
2023-03-21T20:37:08.679Z,29.54
2023-03-21T20:41:08.892Z,29.50
2023-03-21T20:45:08.647Z,29.42
2023-03-21T20:49:08.663Z,29.39
2023-03-21T20:53:08.877Z,29.42
2023-03-21T20:57:09.078Z,29.37
2023-03-21T21:01:09.156Z,29.37
2023-03-21T21:05:28.667Z,29.37
2023-03-21T21:09:10.043Z,29.37
2023-03-21T21:13:08.992Z,29.32
2023-03-21T21:17:30.813Z,29.34
2023-03-21T21:21:10.387Z,29.31
2023-03-21T21:25:08.980Z,29.25
2023-03-21T21:29:08.949Z,29.22
2023-03-21T21:33:09.959Z,29.30
2023-03-21T21:37:09.040Z,29.26
2023-03-21T21:41:09.902Z,29.27
2023-03-21T21:45:09.265Z,29.27
2023-03-21T21:49:09.458Z,29.22
2023-03-21T21:53:09.577Z,29.21
2023-03-21T21:57:09.707Z,29.19
2023-03-21T22:01:09.909Z,29.12
2023-03-21T22:05:10.029Z,29.02
2023-03-21T22:09:10.142Z,29.07
2023-03-21T22:13:10.479Z,29.05
2023-03-21T22:17:10.464Z,29.04
2023-03-21T22:21:10.674Z,29.04
2023-03-21T22:25:10.728Z,29.01
2023-03-21T22:29:10.914Z,29.01
2023-03-21T22:33:11.509Z,28.94
2023-03-21T22:37:11.371Z,28.97
2023-03-21T22:41:11.458Z,28.91
2023-03-21T22:45:11.648Z,28.91
2023-03-21T22:49:11.890Z,28.91
2023-03-21T22:53:12.020Z,28.90
2023-03-21T22:57:12.347Z,28.84
2023-03-21T23:01:12.482Z,28.87
2023-03-21T23:05:12.575Z,28.81
2023-03-21T23:09:12.800Z,28.81
2023-03-21T23:13:12.991Z,28.82
2023-03-21T23:17:13.153Z,28.73
2023-03-21T23:21:13.484Z,28.73
2023-03-21T23:25:13.519Z,28.73
2023-03-21T23:29:13.788Z,28.76
2023-03-21T23:33:13.971Z,28.67
2023-03-21T23:37:14.134Z,28.67
2023-03-21T23:41:14.343Z,28.55
2023-03-21T23:45:14.521Z,28.54
2023-03-21T23:49:14.768Z,28.52
2023-03-21T23:53:14.955Z,28.49
2023-03-21T23:57:15.165Z,28.38
